createdAt,value
2016-11-02T00:00:50.055Z,0
2016-11-02T00:01:51.066Z,0
2016-11-02T00:02:51.251Z,0
2016-11-02T00:03:49.728Z,0
2016-11-02T00:04:49.478Z,0
2016-11-02T00:05:50.625Z,0
2016-11-02T00:06:50.254Z,0
2016-11-02T00:07:51.265Z,0
2016-11-02T00:08:49.717Z,0
2016-11-02T00:09:50.019Z,0
2016-11-02T00:10:50.036Z,0
2016-11-02T00:11:50.779Z,0
2016-11-02T00:12:50.132Z,0
2016-11-02T00:13:50.240Z,0
2016-11-02T00:14:50.431Z,0
2016-11-02T00:15:50.125Z,0
2016-11-02T00:16:50.550Z,0
2016-11-02T00:17:50.143Z,0
2016-11-02T00:18:50.416Z,0
2016-11-02T00:19:51.373Z,0
2016-11-02T00:20:50.153Z,0
2016-11-02T00:21:50.327Z,0
2016-11-02T00:22:50.396Z,0
2016-11-02T00:23:50.926Z,0
2016-11-02T00:24:50.677Z,0
2016-11-02T00:25:50.021Z,0
2016-11-02T00:26:50.206Z,0
2016-11-02T00:27:50.233Z,0
2016-11-02T00:28:50.345Z,0
2016-11-02T00:29:50.754Z,0
2016-11-02T00:30:51.367Z,0
2016-11-02T00:31:50.047Z,0
2016-11-02T00:32:50.889Z,0
2016-11-02T00:33:50.405Z,0
2016-11-02T00:34:50.153Z,0
2016-11-02T00:35:50.787Z,0
2016-11-02T00:36:49.933Z,0
2016-11-02T00:37:50.424Z,0
2016-11-02T00:38:49.945Z,0
2016-11-02T00:39:51.269Z,0
2016-11-02T00:40:51.189Z,0
2016-11-02T00:41:51.308Z,0
2016-11-02T00:42:50.657Z,0
2016-11-02T00:43:50.989Z,0
2016-11-02T00:44:51.047Z,0
2016-11-02T00:45:51.688Z,0
2016-11-02T00:46:52.504Z,0
2016-11-02T00:47:50.233Z,0
2016-11-02T00:48:51.333Z,0
2016-11-02T00:49:51.505Z,0
2016-11-02T00:50:52.931Z,0
2016-11-02T00:51:51.999Z,0
2016-11-02T00:52:52.310Z,0
2016-11-02T00:53:50.906Z,0
2016-11-02T00:54:50.499Z,0
2016-11-02T00:55:51.817Z,0
2016-11-02T00:56:50.552Z,0
2016-11-02T00:57:50.638Z,0
2016-11-02T00:58:51.267Z,0
2016-11-02T00:59:52.060Z,0
2016-11-02T01:00:50.477Z,0
2016-11-02T01:01:51.548Z,0
2016-11-02T01:02:51.265Z,0
2016-11-02T01:03:50.503Z,0
2016-11-02T01:04:51.231Z,0
2016-11-02T01:05:51.032Z,0
2016-11-02T01:06:51.774Z,0
2016-11-02T01:07:50.994Z,0
2016-11-02T01:08:51.296Z,0
2016-11-02T01:09:52.917Z,0
2016-11-02T01:10:51.605Z,0
2016-11-02T01:11:51.585Z,0
2016-11-02T01:12:51.304Z,0
2016-11-02T01:13:51.550Z,0
2016-11-02T01:14:51.530Z,0
2016-11-02T01:15:51.889Z,0
2016-11-02T01:16:51.389Z,0
2016-11-02T01:17:51.388Z,0
2016-11-02T01:18:52.013Z,0
2016-11-02T01:19:51.841Z,0
2016-11-02T01:20:51.152Z,0
2016-11-02T01:21:52.162Z,0
2016-11-02T01:22:51.792Z,0
2016-11-02T01:23:51.244Z,0
2016-11-02T01:24:51.471Z,0
2016-11-02T01:25:51.990Z,0
2016-11-02T01:26:52.199Z,0
2016-11-02T01:27:51.556Z,0
2016-11-02T01:28:51.752Z,0
2016-11-02T01:29:52.661Z,0
2016-11-02T01:30:53.052Z,0
2016-11-02T01:31:51.517Z,0
2016-11-02T01:32:51.742Z,0
2016-11-02T01:33:51.416Z,0
2016-11-02T01:34:52.034Z,0
2016-11-02T01:35:51.544Z,0
2016-11-02T01:36:51.657Z,0
2016-11-02T01:37:52.152Z,0
2016-11-02T01:38:51.860Z,0
2016-11-02T01:39:53.343Z,0
2016-11-02T01:40:51.736Z,0
2016-11-02T01:41:53.018Z,0
2016-11-02T01:42:51.169Z,0
2016-11-02T01:43:51.570Z,0
2016-11-02T01:44:52.002Z,0
2016-11-02T01:45:51.804Z,0
2016-11-02T01:46:51.561Z,0
2016-11-02T01:47:52.191Z,0
2016-11-02T01:48:51.682Z,0
2016-11-02T01:49:51.576Z,0
2016-11-02T01:50:51.984Z,0
2016-11-02T01:51:52.038Z,0
2016-11-02T01:52:52.530Z,0
2016-11-02T01:53:52.852Z,0
2016-11-02T01:54:52.281Z,0
2016-11-02T01:55:52.269Z,0
2016-11-02T01:56:51.658Z,0
2016-11-02T01:57:51.566Z,0
2016-11-02T01:58:53.031Z,0
2016-11-02T01:59:52.165Z,0
2016-11-02T02:00:52.563Z,0
2016-11-02T02:01:51.578Z,0
2016-11-02T02:02:52.194Z,0
2016-11-02T02:03:52.203Z,0
2016-11-02T02:04:52.143Z,0
2016-11-02T02:05:51.669Z,0
2016-11-02T02:06:52.613Z,0
2016-11-02T02:07:51.833Z,0
2016-11-02T02:08:52.541Z,0
2016-11-02T02:09:51.416Z,0
2016-11-02T02:10:51.916Z,0
2016-11-02T02:11:52.113Z,0
2016-11-02T02:12:53.858Z,0
2016-11-02T02:13:52.176Z,0
2016-11-02T02:14:51.918Z,0
2016-11-02T02:15:52.783Z,0
2016-11-02T02:16:52.570Z,0
2016-11-02T02:17:52.001Z,0
2016-11-02T02:18:52.797Z,0
2016-11-02T02:19:52.989Z,0
2016-11-02T02:20:53.036Z,0
2016-11-02T02:21:52.208Z,0
2016-11-02T02:22:51.962Z,0
2016-11-02T02:23:52.270Z,0
2016-11-02T02:24:53.003Z,0
2016-11-02T02:25:52.466Z,0
2016-11-02T02:26:52.064Z,0
2016-11-02T02:27:53.055Z,0
2016-11-02T02:28:52.152Z,0
2016-11-02T02:29:52.504Z,0
2016-11-02T02:30:52.873Z,0
2016-11-02T02:31:51.909Z,0
2016-11-02T02:32:52.955Z,0
2016-11-02T02:33:53.008Z,0
2016-11-02T02:34:53.347Z,0
2016-11-02T02:35:52.195Z,0
2016-11-02T02:36:52.663Z,0
2016-11-02T02:37:52.320Z,0
2016-11-02T02:38:52.758Z,0
2016-11-02T02:39:52.531Z,0
2016-11-02T02:40:52.532Z,0
2016-11-02T02:41:52.820Z,0
2016-11-02T02:42:52.779Z,0
2016-11-02T02:43:53.093Z,0
2016-11-02T02:44:51.848Z,0
2016-11-02T02:45:52.469Z,0
2016-11-02T02:46:52.460Z,0
2016-11-02T02:47:54.752Z,0
2016-11-02T02:48:51.873Z,0
2016-11-02T02:49:53.984Z,0
2016-11-02T02:50:51.818Z,0
2016-11-02T02:51:52.752Z,0
2016-11-02T02:52:54.090Z,0
2016-11-02T02:53:52.887Z,0
2016-11-02T02:54:53.347Z,0
2016-11-02T02:55:52.622Z,0
2016-11-02T02:56:52.165Z,0
2016-11-02T02:57:53.025Z,0
2016-11-02T02:58:53.867Z,0
2016-11-02T02:59:52.733Z,0
2016-11-02T03:00:53.434Z,0
2016-11-02T03:01:53.155Z,0
2016-11-02T03:02:52.346Z,0
2016-11-02T03:03:53.721Z,0
2016-11-02T03:04:53.229Z,0
2016-11-02T03:05:53.123Z,0
2016-11-02T03:06:53.941Z,0
2016-11-02T03:07:52.488Z,0
2016-11-02T03:08:53.049Z,0
2016-11-02T03:09:53.283Z,0
2016-11-02T03:10:53.270Z,0
2016-11-02T03:11:52.979Z,0
2016-11-02T03:12:52.807Z,0
2016-11-02T03:13:54.087Z,0
2016-11-02T03:14:52.597Z,0
2016-11-02T03:15:52.998Z,0
2016-11-02T03:16:53.335Z,0
2016-11-02T03:17:52.633Z,0
2016-11-02T03:18:53.593Z,0
2016-11-02T03:19:53.277Z,0
2016-11-02T03:20:52.967Z,0
2016-11-02T03:21:53.962Z,0
2016-11-02T03:22:53.977Z,0
2016-11-02T03:23:54.112Z,0
2016-11-02T03:24:53.986Z,0
2016-11-02T03:25:53.748Z,0
2016-11-02T03:26:54.302Z,0
2016-11-02T03:27:53.377Z,0
2016-11-02T03:28:53.319Z,0
2016-11-02T03:29:54.386Z,0
2016-11-02T03:30:53.176Z,0
2016-11-02T03:31:52.965Z,0
2016-11-02T03:32:54.147Z,0
2016-11-02T03:33:53.154Z,0
2016-11-02T03:34:53.590Z,0
2016-11-02T03:35:53.353Z,0
2016-11-02T03:36:54.078Z,0
2016-11-02T03:37:53.397Z,0
2016-11-02T03:38:53.207Z,0
2016-11-02T03:39:53.114Z,0
2016-11-02T03:40:54.129Z,0
2016-11-02T03:41:54.721Z,0
2016-11-02T03:42:54.291Z,0
2016-11-02T03:43:54.278Z,0
2016-11-02T03:44:54.057Z,0
2016-11-02T03:45:53.401Z,0
2016-11-02T03:46:54.001Z,0
2016-11-02T03:47:54.902Z,0
2016-11-02T03:48:54.155Z,0
2016-11-02T03:49:53.366Z,0
2016-11-02T03:50:53.410Z,0
2016-11-02T03:51:54.029Z,0
2016-11-02T03:52:54.491Z,0
2016-11-02T03:53:54.455Z,0
2016-11-02T03:54:54.241Z,0
2016-11-02T03:55:54.082Z,0
2016-11-02T03:56:54.411Z,0
2016-11-02T03:57:53.883Z,0
2016-11-02T03:58:53.814Z,0
2016-11-02T03:59:54.294Z,0
2016-11-02T04:00:55.151Z,0
2016-11-02T04:01:54.167Z,0
2016-11-02T04:02:54.739Z,0
2016-11-02T04:03:54.272Z,0
2016-11-02T04:04:53.884Z,0
2016-11-02T04:05:54.116Z,0
2016-11-02T04:06:53.862Z,0
2016-11-02T04:07:54.228Z,0
2016-11-02T04:08:53.671Z,0
2016-11-02T04:09:54.096Z,0
2016-11-02T04:10:54.503Z,0
2016-11-02T04:11:54.054Z,0
2016-11-02T04:12:54.113Z,0
2016-11-02T04:13:54.473Z,0
2016-11-02T04:14:54.168Z,0
2016-11-02T04:15:54.388Z,0
2016-11-02T04:16:53.887Z,0
2016-11-02T04:17:53.883Z,0
2016-11-02T04:18:53.992Z,0
2016-11-02T04:19:55.152Z,0
2016-11-02T04:20:54.535Z,0
2016-11-02T04:21:54.375Z,0
2016-11-02T04:22:54.470Z,0
2016-11-02T04:23:54.324Z,0
2016-11-02T04:24:53.875Z,0
2016-11-02T04:25:54.366Z,0
2016-11-02T04:26:54.909Z,0
2016-11-02T04:27:55.415Z,0
2016-11-02T04:28:53.783Z,0
2016-11-02T04:29:54.557Z,0
2016-11-02T04:30:54.347Z,0
2016-11-02T04:31:55.154Z,0
2016-11-02T04:32:54.178Z,0
2016-11-02T04:33:55.264Z,0
2016-11-02T04:34:55.392Z,0
2016-11-02T04:35:54.792Z,0
2016-11-02T04:36:55.206Z,0
2016-11-02T04:37:54.154Z,0
2016-11-02T04:38:55.360Z,0
2016-11-02T04:39:54.481Z,0
2016-11-02T04:40:55.245Z,0
2016-11-02T04:41:54.945Z,0
2016-11-02T04:42:54.068Z,0
2016-11-02T04:43:55.061Z,0
2016-11-02T04:44:54.590Z,0
2016-11-02T04:45:55.420Z,0
2016-11-02T04:46:54.917Z,0
2016-11-02T04:47:54.447Z,0
2016-11-02T04:48:54.502Z,0
2016-11-02T04:49:54.364Z,0
2016-11-02T04:50:54.432Z,0
2016-11-02T04:51:55.318Z,0
2016-11-02T04:52:55.563Z,0
2016-11-02T04:53:55.926Z,0
2016-11-02T04:54:55.393Z,0
2016-11-02T04:55:54.320Z,0
2016-11-02T04:56:54.332Z,0
2016-11-02T04:57:54.137Z,0
2016-11-02T04:58:53.823Z,0
2016-11-02T04:59:54.657Z,0
2016-11-02T05:00:55.883Z,0
2016-11-02T05:01:55.761Z,0
2016-11-02T05:02:55.675Z,0
2016-11-02T05:03:54.383Z,0
2016-11-02T05:04:55.622Z,0
2016-11-02T05:05:56.454Z,0
2016-11-02T05:06:55.923Z,0
2016-11-02T05:07:56.228Z,0
2016-11-02T05:08:55.209Z,0
2016-11-02T05:09:54.772Z,0
2016-11-02T05:10:55.031Z,0
2016-11-02T05:11:55.317Z,0
2016-11-02T05:12:54.681Z,0
2016-11-02T05:13:55.718Z,0
2016-11-02T05:14:55.707Z,0
2016-11-02T05:15:55.262Z,0
2016-11-02T05:16:55.370Z,0
2016-11-02T05:17:55.739Z,0
2016-11-02T05:18:55.931Z,0
2016-11-02T05:19:55.575Z,0
2016-11-02T05:20:54.630Z,0
2016-11-02T05:21:56.561Z,0
2016-11-02T05:22:55.106Z,0
2016-11-02T05:23:55.562Z,0
2016-11-02T05:24:55.549Z,0
2016-11-02T05:25:55.641Z,0
2016-11-02T05:26:55.584Z,0
2016-11-02T05:27:55.382Z,0
2016-11-02T05:28:55.531Z,0
2016-11-02T05:29:55.852Z,0
2016-11-02T05:30:55.585Z,0
2016-11-02T05:31:55.961Z,0
2016-11-02T05:32:56.072Z,0
2016-11-02T05:33:55.464Z,0
2016-11-02T05:34:56.582Z,0
2016-11-02T05:35:56.065Z,0
2016-11-02T05:36:55.820Z,0
2016-11-02T05:37:56.055Z,0
2016-11-02T05:38:55.599Z,0
2016-11-02T05:39:55.547Z,0
2016-11-02T05:40:55.198Z,0
2016-11-02T05:41:56.206Z,0
2016-11-02T05:42:55.573Z,0
2016-11-02T05:43:56.321Z,0
2016-11-02T05:44:56.233Z,0
2016-11-02T05:45:55.862Z,4
2016-11-02T05:46:55.678Z,4
2016-11-02T05:47:55.983Z,0
2016-11-02T05:48:55.741Z,4
2016-11-02T05:49:55.558Z,4
2016-11-02T05:50:56.760Z,4
2016-11-02T05:51:56.859Z,4
2016-11-02T05:52:56.398Z,4
2016-11-02T05:53:56.334Z,4
2016-11-02T05:54:55.454Z,8
2016-11-02T05:55:56.781Z,12
2016-11-02T05:56:55.645Z,12
2016-11-02T05:57:55.722Z,16
2016-11-02T05:58:56.821Z,16
2016-11-02T05:59:55.899Z,20
2016-11-02T06:00:55.696Z,28
2016-11-02T06:01:55.549Z,32
2016-11-02T06:02:55.556Z,36
2016-11-02T06:03:56.164Z,44
2016-11-02T06:04:55.676Z,56
2016-11-02T06:05:55.363Z,68
2016-11-02T06:06:56.505Z,72
2016-11-02T06:07:56.099Z,88
2016-11-02T06:08:56.447Z,92
2016-11-02T06:09:56.077Z,100
2016-11-02T06:10:55.994Z,116
2016-11-02T06:11:56.794Z,132
2016-11-02T06:12:55.868Z,156
2016-11-02T06:13:56.404Z,180
2016-11-02T06:14:55.543Z,180
2016-11-02T06:15:56.670Z,196
2016-11-02T06:16:56.868Z,224
2016-11-02T06:17:55.924Z,252
2016-11-02T06:18:55.685Z,284
2016-11-02T06:19:56.243Z,332
2016-11-02T06:20:56.152Z,396
2016-11-02T06:21:56.604Z,420
2016-11-02T06:22:56.601Z,436
2016-11-02T06:23:57.721Z,456
2016-11-02T06:24:56.074Z,496
2016-11-02T06:25:56.984Z,524
2016-11-02T06:26:55.517Z,560
2016-11-02T06:27:55.929Z,580
2016-11-02T06:28:56.861Z,588
2016-11-02T06:29:55.928Z,560
2016-11-02T06:30:56.320Z,524
2016-11-02T06:31:56.352Z,524
2016-11-02T06:32:56.672Z,528
2016-11-02T06:33:56.642Z,536
2016-11-02T06:34:55.909Z,544
2016-11-02T06:35:56.789Z,576
2016-11-02T06:36:56.493Z,648
2016-11-02T06:37:56.476Z,680
2016-11-02T06:38:56.081Z,692
2016-11-02T06:39:56.743Z,668
2016-11-02T06:40:55.981Z,600
2016-11-02T06:41:56.795Z,608
2016-11-02T06:42:56.288Z,596
2016-11-02T06:43:56.059Z,616
2016-11-02T06:44:56.772Z,560
2016-11-02T06:45:56.340Z,424
2016-11-02T06:46:57.009Z,356
2016-11-02T06:47:56.412Z,448
2016-11-02T06:48:58.440Z,640
2016-11-02T06:49:56.022Z,676
2016-11-02T06:50:56.203Z,672
2016-11-02T06:51:56.644Z,868
2016-11-02T06:52:56.172Z,1144
2016-11-02T06:53:56.303Z,1416
2016-11-02T06:54:56.435Z,1636
2016-11-02T06:55:56.368Z,1488
2016-11-02T06:56:57.047Z,1176
2016-11-02T06:57:56.044Z,876
2016-11-02T06:58:56.399Z,636
2016-11-02T06:59:56.099Z,508
2016-11-02T07:00:56.729Z,452
2016-11-02T07:01:56.721Z,460
2016-11-02T07:02:56.943Z,492
2016-11-02T07:03:57.487Z,512
2016-11-02T07:04:56.249Z,516
2016-11-02T07:05:56.100Z,592
2016-11-02T07:06:56.574Z,748
2016-11-02T07:07:56.834Z,928
2016-11-02T07:08:57.089Z,1176
2016-11-02T07:09:56.495Z,1384
2016-11-02T07:10:56.951Z,1552
2016-11-02T07:11:58.008Z,1692
2016-11-02T07:12:57.000Z,2040
2016-11-02T07:13:57.507Z,2824
2016-11-02T07:14:57.201Z,3572
2016-11-02T07:15:57.793Z,3284
2016-11-02T07:16:58.223Z,2640
2016-11-02T07:17:57.241Z,1832
2016-11-02T07:18:57.608Z,1636
2016-11-02T07:19:57.450Z,1440
2016-11-02T07:20:56.607Z,1488
2016-11-02T07:21:56.629Z,1660
2016-11-02T07:22:58.400Z,1832
2016-11-02T07:23:56.311Z,1940
2016-11-02T07:24:56.918Z,2184
2016-11-02T07:25:57.845Z,2732
2016-11-02T07:26:57.655Z,3524
2016-11-02T07:27:57.632Z,4076
2016-11-02T07:28:56.685Z,4400
2016-11-02T07:29:57.128Z,4192
2016-11-02T07:30:57.202Z,4036
2016-11-02T07:31:57.731Z,3796
2016-11-02T07:32:56.998Z,3572
2016-11-02T07:33:59.148Z,3312
2016-11-02T07:34:56.634Z,3208
2016-11-02T07:35:57.183Z,3204
2016-11-02T07:36:56.883Z,2968
2016-11-02T07:37:58.374Z,3196
2016-11-02T07:38:57.390Z,3668
2016-11-02T07:39:56.667Z,3840
2016-11-02T07:40:57.163Z,3532
2016-11-02T07:41:56.888Z,3104
2016-11-02T07:42:57.157Z,3388
2016-11-02T07:43:57.111Z,3756
2016-11-02T07:44:57.838Z,3444
2016-11-02T07:45:57.129Z,2872
2016-11-02T07:46:57.220Z,2812
2016-11-02T07:47:59.670Z,3036
2016-11-02T07:48:58.143Z,3336
2016-11-02T07:49:58.177Z,3568
2016-11-02T07:50:56.872Z,3672
2016-11-02T07:51:58.216Z,3604
2016-11-02T07:52:56.773Z,3552
2016-11-02T07:53:57.332Z,3596
2016-11-02T07:54:57.763Z,3860
2016-11-02T07:55:58.073Z,4168
2016-11-02T07:56:56.999Z,4096
2016-11-02T07:57:57.696Z,3556
2016-11-02T07:58:57.685Z,3632
2016-11-02T07:59:57.169Z,3388
2016-11-02T08:00:57.543Z,3060
2016-11-02T08:01:57.786Z,2520
2016-11-02T08:02:58.189Z,1936
2016-11-02T08:03:58.156Z,2080
2016-11-02T08:04:58.735Z,2300
2016-11-02T08:05:57.919Z,2236
2016-11-02T08:06:57.911Z,1992
2016-11-02T08:07:57.851Z,2204
2016-11-02T08:08:58.344Z,2408
2016-11-02T08:09:57.639Z,2200
2016-11-02T08:10:57.617Z,2296
2016-11-02T08:11:59.066Z,2312
2016-11-02T08:12:58.414Z,2872
2016-11-02T08:13:58.270Z,4152
2016-11-02T08:14:57.749Z,4388
2016-11-02T08:15:58.856Z,4236
2016-11-02T08:16:57.807Z,4888
2016-11-02T08:17:59.524Z,5372
2016-11-02T08:18:58.128Z,5236
2016-11-02T08:19:58.426Z,5008
2016-11-02T08:20:58.648Z,5308
2016-11-02T08:21:58.123Z,5084
2016-11-02T08:22:58.275Z,4892
2016-11-02T08:23:58.830Z,5336
2016-11-02T08:24:58.150Z,6116
2016-11-02T08:25:58.145Z,6728
2016-11-02T08:26:57.958Z,7268
2016-11-02T08:27:58.580Z,7752
2016-11-02T08:28:59.251Z,6556
2016-11-02T08:29:58.323Z,6160
2016-11-02T08:30:58.635Z,6000
2016-11-02T08:31:58.850Z,6300
2016-11-02T08:32:58.769Z,7792
2016-11-02T08:33:57.831Z,7848
2016-11-02T08:34:58.238Z,6500
2016-11-02T08:35:58.806Z,7088
2016-11-02T08:36:58.573Z,8076
2016-11-02T08:37:58.536Z,8972
2016-11-02T08:38:58.709Z,7524
2016-11-02T08:39:59.062Z,8568
2016-11-02T08:40:58.364Z,8804
2016-11-02T08:41:59.180Z,8764
2016-11-02T08:42:58.078Z,8696
2016-11-02T08:43:58.887Z,9552
2016-11-02T08:44:59.165Z,10212
2016-11-02T08:45:59.151Z,11092
2016-11-02T08:46:59.078Z,10772
2016-11-02T08:47:58.775Z,10660
2016-11-02T08:48:58.074Z,10844
2016-11-02T08:49:59.564Z,9292
2016-11-02T08:50:58.099Z,8916
2016-11-02T08:51:58.668Z,8420
2016-11-02T08:52:59.193Z,7532
2016-11-02T08:53:59.607Z,7948
2016-11-02T08:54:58.410Z,8180
2016-11-02T08:55:58.956Z,10276
2016-11-02T08:56:58.762Z,10340
2016-11-02T08:57:58.575Z,11556
2016-11-02T08:58:59.182Z,12820
2016-11-02T08:59:58.547Z,10504
2016-11-02T09:00:58.731Z,12632
2016-11-02T09:01:58.159Z,10568
2016-11-02T09:02:59.449Z,10840
2016-11-02T09:03:58.650Z,11376
2016-11-02T09:04:59.025Z,10840
2016-11-02T09:05:59.504Z,11516
2016-11-02T09:06:58.613Z,13560
2016-11-02T09:07:59.950Z,13144
2016-11-02T09:08:59.166Z,11524
2016-11-02T09:09:59.282Z,8404
2016-11-02T09:10:59.429Z,7164
2016-11-02T09:11:58.626Z,6896
2016-11-02T09:12:58.166Z,7820
2016-11-02T09:13:57.990Z,8280
2016-11-02T09:14:59.048Z,9084
2016-11-02T09:15:58.863Z,9320
2016-11-02T09:16:58.897Z,9660
2016-11-02T09:17:59.774Z,9824
2016-11-02T09:18:59.320Z,8976
2016-11-02T09:19:59.207Z,7968
2016-11-02T09:20:58.789Z,7496
2016-11-02T09:21:58.783Z,6880
2016-11-02T09:22:58.731Z,6556
2016-11-02T09:23:59.622Z,6492
2016-11-02T09:24:58.858Z,6876
2016-11-02T09:25:59.227Z,7516
2016-11-02T09:26:58.479Z,8816
2016-11-02T09:27:59.148Z,9992
2016-11-02T09:28:59.206Z,11672
2016-11-02T09:29:59.802Z,11424
2016-11-02T09:30:59.590Z,9932
2016-11-02T09:31:58.653Z,9800
2016-11-02T09:32:59.319Z,9912
2016-11-02T09:34:00.118Z,9680
2016-11-02T09:34:59.353Z,8992
2016-11-02T09:35:59.338Z,8260
2016-11-02T09:36:59.551Z,9052
2016-11-02T09:37:59.310Z,8488
2016-11-02T09:39:00.090Z,9116
2016-11-02T09:39:59.848Z,10724
2016-11-02T09:40:59.350Z,11584
2016-11-02T09:41:59.698Z,9832
2016-11-02T09:42:58.994Z,6884
2016-11-02T09:43:59.814Z,7588
2016-11-02T09:44:59.359Z,9164
2016-11-02T09:45:59.227Z,12452
2016-11-02T09:46:59.483Z,15620
2016-11-02T09:47:59.074Z,16352
2016-11-02T09:48:58.974Z,13736
2016-11-02T09:50:00.000Z,13632
2016-11-02T09:50:59.389Z,14476
2016-11-02T09:51:59.172Z,15608
2016-11-02T09:53:00.335Z,15560
2016-11-02T09:53:59.463Z,16768
2016-11-02T09:54:59.418Z,15660
2016-11-02T09:56:00.397Z,18496
2016-11-02T09:57:00.170Z,22400
2016-11-02T09:57:59.979Z,21632
2016-11-02T09:58:58.973Z,19456
2016-11-02T09:59:59.506Z,16320
2016-11-02T10:01:00.644Z,17856
2016-11-02T10:01:58.915Z,17600
2016-11-02T10:02:59.679Z,16416
2016-11-02T10:04:00.337Z,14948
2016-11-02T10:04:59.785Z,11744
2016-11-02T10:05:59.473Z,10196
2016-11-02T10:06:59.522Z,11024
2016-11-02T10:07:59.343Z,11072
2016-11-02T10:08:59.267Z,9044
2016-11-02T10:09:59.947Z,9228
2016-11-02T10:10:59.795Z,11576
2016-11-02T10:12:00.426Z,12000
2016-11-02T10:12:59.660Z,10876
2016-11-02T10:13:59.680Z,9024
2016-11-02T10:14:59.866Z,8444
2016-11-02T10:16:00.349Z,9164
2016-11-02T10:17:00.746Z,10184
2016-11-02T10:18:00.699Z,8756
2016-11-02T10:19:00.453Z,7716
2016-11-02T10:19:59.993Z,6592
2016-11-02T10:21:00.223Z,6540
2016-11-02T10:21:59.803Z,6652
2016-11-02T10:23:00.238Z,6532
2016-11-02T10:24:00.196Z,5332
2016-11-02T10:25:00.398Z,5204
2016-11-02T10:26:00.167Z,5804
2016-11-02T10:27:00.502Z,6756
2016-11-02T10:28:00.891Z,9064
2016-11-02T10:29:00.571Z,10320
2016-11-02T10:29:59.838Z,10620
2016-11-02T10:31:00.129Z,11712
2016-11-02T10:32:00.943Z,13536
2016-11-02T10:33:00.598Z,17056
2016-11-02T10:34:00.991Z,18592
2016-11-02T10:34:59.896Z,19744
2016-11-02T10:36:01.039Z,22752
2016-11-02T10:37:00.767Z,26080
2016-11-02T10:38:00.767Z,23392
2016-11-02T10:39:00.373Z,14996
2016-11-02T10:39:59.726Z,8152
2016-11-02T10:41:00.235Z,5924
2016-11-02T10:42:01.023Z,4864
2016-11-02T10:43:00.629Z,4700
2016-11-02T10:44:00.520Z,4492
2016-11-02T10:45:00.625Z,3724
2016-11-02T10:46:01.159Z,3620
2016-11-02T10:47:01.287Z,4452
2016-11-02T10:48:00.920Z,4348
2016-11-02T10:49:01.150Z,4460
2016-11-02T10:50:01.155Z,4876
2016-11-02T10:51:00.666Z,5176
2016-11-02T10:52:00.837Z,5108
2016-11-02T10:53:01.172Z,5576
2016-11-02T10:54:00.863Z,8468
2016-11-02T10:55:00.988Z,7888
2016-11-02T10:57:01.849Z,5588
2016-11-02T10:58:01.337Z,8240
2016-11-02T10:59:00.523Z,9188
2016-11-02T11:00:00.988Z,9432
2016-11-02T11:01:00.351Z,11740
2016-11-02T11:02:01.245Z,13136
2016-11-02T11:03:02.715Z,12068
2016-11-02T11:04:02.559Z,12084
2016-11-02T11:05:00.369Z,12132
2016-11-02T11:06:01.921Z,10424
2016-11-02T11:07:00.331Z,8448
2016-11-02T11:08:00.829Z,8620
2016-11-02T11:09:01.305Z,11240
2016-11-02T11:10:02.105Z,11804
2016-11-02T11:11:00.826Z,12912
2016-11-02T11:12:01.010Z,16928
2016-11-02T11:13:00.882Z,13904
2016-11-02T11:14:00.847Z,13524
2016-11-02T11:15:00.463Z,14460
2016-11-02T11:16:00.970Z,15672
2016-11-02T11:17:01.124Z,14484
2016-11-02T11:18:00.604Z,12024
2016-11-02T11:19:01.154Z,11748
2016-11-02T11:20:01.044Z,12592
2016-11-02T11:21:01.714Z,12740
2016-11-02T11:22:01.695Z,10048
2016-11-02T11:23:01.200Z,9472
2016-11-02T11:24:01.369Z,10152
2016-11-02T11:25:01.269Z,10316
2016-11-02T11:26:00.976Z,9612
2016-11-02T11:27:02.016Z,8756
2016-11-02T11:28:01.930Z,7992
2016-11-02T11:29:02.228Z,8028
2016-11-02T11:30:01.275Z,9792
2016-11-02T11:31:02.345Z,12836
2016-11-02T11:32:01.823Z,15568
2016-11-02T11:33:01.177Z,13704
2016-11-02T11:34:01.465Z,11764
2016-11-02T11:35:02.298Z,12028
2016-11-02T11:36:01.631Z,9912
2016-11-02T11:37:01.436Z,11216
2016-11-02T11:38:01.115Z,12572
2016-11-02T11:39:01.246Z,14116
2016-11-02T11:40:01.278Z,14376
2016-11-02T11:41:01.101Z,14748
2016-11-02T11:42:01.804Z,13872
2016-11-02T11:43:02.148Z,12340
2016-11-02T11:44:01.879Z,11720
2016-11-02T11:45:01.822Z,12520
2016-11-02T11:46:02.153Z,14492
2016-11-02T11:47:02.595Z,17280
2016-11-02T11:48:02.456Z,16928
2016-11-02T11:49:02.384Z,16512
2016-11-02T11:50:03.003Z,15880
2016-11-02T11:51:01.155Z,14620
2016-11-02T11:52:01.232Z,13200
2016-11-02T11:53:02.002Z,12372
2016-11-02T11:54:02.142Z,10480
2016-11-02T11:55:02.616Z,12148
2016-11-02T11:56:01.560Z,7700
2016-11-02T11:57:01.264Z,6388
2016-11-02T11:58:02.566Z,7324
2016-11-02T11:59:01.856Z,7284
2016-11-02T12:00:01.848Z,7468
2016-11-02T12:01:01.988Z,7568
2016-11-02T12:02:02.174Z,10076
2016-11-02T12:03:01.907Z,9976
2016-11-02T12:04:02.263Z,8992
2016-11-02T12:05:02.192Z,7980
2016-11-02T12:06:01.772Z,6136
2016-11-02T12:07:02.413Z,3732
2016-11-02T12:08:02.003Z,3448
2016-11-02T12:09:02.230Z,5408
2016-11-02T12:10:02.054Z,5196
2016-11-02T12:11:02.504Z,3824
2016-11-02T12:12:03.009Z,4172
2016-11-02T12:13:02.083Z,4472
2016-11-02T12:14:02.074Z,4332
2016-11-02T12:15:02.681Z,3424
2016-11-02T12:16:02.246Z,2368
2016-11-02T12:17:02.814Z,1852
2016-11-02T12:18:02.048Z,2076
2016-11-02T12:19:03.578Z,2328
2016-11-02T12:20:02.138Z,2548
2016-11-02T12:21:02.017Z,2976
2016-11-02T12:22:02.811Z,3136
2016-11-02T12:23:03.030Z,2832
2016-11-02T12:24:02.101Z,2628
2016-11-02T12:25:03.187Z,2952
2016-11-02T12:26:02.297Z,3348
2016-11-02T12:27:02.336Z,3036
2016-11-02T12:28:02.793Z,3108
2016-11-02T12:29:02.935Z,3700
2016-11-02T12:30:02.408Z,3564
2016-11-02T12:31:02.526Z,3196
2016-11-02T12:32:02.529Z,3052
2016-11-02T12:33:03.550Z,3224
2016-11-02T12:34:01.856Z,3356
2016-11-02T12:35:02.455Z,3080
2016-11-02T12:36:02.629Z,2416
2016-11-02T12:37:03.003Z,2084
2016-11-02T12:38:03.444Z,2220
2016-11-02T12:39:02.420Z,2380
2016-11-02T12:40:03.182Z,2516
2016-11-02T12:41:02.340Z,3816
2016-11-02T12:42:02.345Z,4532
2016-11-02T12:43:02.295Z,6120
2016-11-02T12:44:02.835Z,6876
2016-11-02T12:45:02.223Z,6904
2016-11-02T12:46:03.286Z,7052
2016-11-02T12:47:02.399Z,8348
2016-11-02T12:48:02.744Z,10020
2016-11-02T12:49:03.151Z,9864
2016-11-02T12:50:02.113Z,12380
2016-11-02T12:51:03.383Z,14444
2016-11-02T12:52:03.238Z,15592
2016-11-02T12:53:02.469Z,16576
2016-11-02T12:54:02.961Z,14292
2016-11-02T12:55:02.695Z,11548
2016-11-02T12:56:02.574Z,11048
2016-11-02T12:57:02.779Z,10256
2016-11-02T12:58:03.321Z,9884
2016-11-02T12:59:02.784Z,13196
2016-11-02T13:00:04.201Z,13720
2016-11-02T13:01:03.370Z,12784
2016-11-02T13:02:02.594Z,10800
2016-11-02T13:03:03.155Z,8292
2016-11-02T13:04:03.060Z,8512
2016-11-02T13:05:04.232Z,10360
2016-11-02T13:06:03.386Z,12828
2016-11-02T13:07:02.890Z,15384
2016-11-02T13:08:03.272Z,15224
2016-11-02T13:09:03.416Z,13304
2016-11-02T13:10:03.267Z,11544
2016-11-02T13:11:03.052Z,11616
2016-11-02T13:12:03.498Z,10188
2016-11-02T13:13:02.822Z,9224
2016-11-02T13:14:03.576Z,9884
2016-11-02T13:15:02.855Z,9492
2016-11-02T13:16:02.719Z,9228
2016-11-02T13:17:03.292Z,9516
2016-11-02T13:18:03.368Z,9380
2016-11-02T13:19:04.651Z,10244
2016-11-02T13:20:03.422Z,10512
2016-11-02T13:21:03.604Z,8228
2016-11-02T13:22:02.805Z,7352
2016-11-02T13:23:03.322Z,6364
2016-11-02T13:24:03.720Z,5692
2016-11-02T13:25:03.123Z,4980
2016-11-02T13:26:03.486Z,4320
2016-11-02T13:27:03.270Z,5144
2016-11-02T13:28:03.685Z,4956
2016-11-02T13:29:03.674Z,3916
2016-11-02T13:30:03.454Z,3836
2016-11-02T13:31:03.850Z,3680
2016-11-02T13:32:03.576Z,3644
2016-11-02T13:33:04.413Z,3704
2016-11-02T13:34:03.616Z,4200
2016-11-02T13:35:03.329Z,4036
2016-11-02T13:36:03.231Z,3868
2016-11-02T13:37:03.209Z,4292
2016-11-02T13:38:03.924Z,4824
2016-11-02T13:39:04.501Z,3800
2016-11-02T13:40:03.906Z,3768
2016-11-02T13:41:04.169Z,3668
2016-11-02T13:42:03.305Z,3660
2016-11-02T13:43:03.541Z,3832
2016-11-02T13:44:04.562Z,3932
2016-11-02T13:45:03.625Z,4584
2016-11-02T13:46:03.733Z,4848
2016-11-02T13:47:04.448Z,3940
2016-11-02T13:48:04.808Z,3832
2016-11-02T13:49:04.389Z,4184
2016-11-02T13:50:04.466Z,4708
2016-11-02T13:51:05.496Z,4620
2016-11-02T13:52:04.560Z,4608
2016-11-02T13:53:04.053Z,4696
2016-11-02T13:54:04.143Z,4864